sensor_id;sensor_type;location;lat;lon;timestamp;pressure;altitude;pressure_sealevel;temperature;humidity
72024;BME280;59889;50.700;5.440;2023-06-14T00:00:12;99775.91;;;30.83;21.76
72024;BME280;59889;50.700;5.440;2023-06-14T00:02:39;99774.51;;;30.62;21.75
72024;BME280;59889;50.700;5.440;2023-06-14T00:05:04;99776.96;;;30.98;21.67
72024;BME280;59889;50.700;5.440;2023-06-14T00:07:35;99777.22;;;30.83;21.79
72024;BME280;59889;50.700;5.440;2023-06-14T00:09:55;99778.29;;;30.97;21.70
72024;BME280;59889;50.700;5.440;2023-06-14T00:12:21;99776.31;;;31.02;21.66
72024;BME280;59889;50.700;5.440;2023-06-14T00:14:46;99775.29;;;30.99;21.68
72024;BME280;59889;50.700;5.440;2023-06-14T00:17:12;99771.09;;;30.97;21.70
72024;BME280;59889;50.700;5.440;2023-06-14T00:19:38;99772.17;;;30.65;21.77
72024;BME280;59889;50.700;5.440;2023-06-14T00:22:05;99771.28;;;30.79;21.86
72024;BME280;59889;50.700;5.440;2023-06-14T00:24:30;99769.50;;;30.70;21.75
72024;BME280;59889;50.700;5.440;2023-06-14T00:26:56;99770.56;;;31.19;21.74
72024;BME280;59889;50.700;5.440;2023-06-14T00:29:22;99771.42;;;30.93;21.77
72024;BME280;59889;50.700;5.440;2023-06-14T00:31:47;99771.74;;;31.12;21.80
72024;BME280;59889;50.700;5.440;2023-06-14T00:34:13;99773.98;;;30.54;21.88
72024;BME280;59889;50.700;5.440;2023-06-14T00:36:39;99773.02;;;31.02;21.90
72024;BME280;59889;50.700;5.440;2023-06-14T00:39:05;99776.00;;;30.70;21.97
72024;BME280;59889;50.700;5.440;2023-06-14T00:41:31;99774.29;;;30.85;21.84
72024;BME280;59889;50.700;5.440;2023-06-14T00:43:56;99776.49;;;31.02;21.91
72024;BME280;59889;50.700;5.440;2023-06-14T00:46:22;99773.66;;;30.76;21.92
72024;BME280;59889;50.700;5.440;2023-06-14T00:48:48;99776.77;;;30.90;22.02
72024;BME280;59889;50.700;5.440;2023-06-14T00:51:14;99779.50;;;30.75;21.95
72024;BME280;59889;50.700;5.440;2023-06-14T00:53:39;99778.11;;;30.80;21.92
72024;BME280;59889;50.700;5.440;2023-06-14T00:56:05;99777.77;;;30.54;22.13
72024;BME280;59889;50.700;5.440;2023-06-14T00:58:32;99778.00;;;30.66;22.05
72024;BME280;59889;50.700;5.440;2023-06-14T01:00:57;99780.56;;;30.64;22.07
72024;BME280;59889;50.700;5.440;2023-06-14T01:03:22;99779.38;;;30.72;22.01
72024;BME280;59889;50.700;5.440;2023-06-14T01:05:49;99780.76;;;30.42;22.08
72024;BME280;59889;50.700;5.440;2023-06-14T01:08:21;99778.40;;;30.67;22.05
72024;BME280;59889;50.700;5.440;2023-06-14T01:10:45;99780.48;;;30.40;22.07
72024;BME280;59889;50.700;5.440;2023-06-14T01:13:12;99781.00;;;30.73;22.01
72024;BME280;59889;50.700;5.440;2023-06-14T01:15:31;99779.50;;;30.41;22.08
72024;BME280;59889;50.700;5.440;2023-06-14T01:17:57;99779.20;;;30.62;22.13
72024;BME280;59889;50.700;5.440;2023-06-14T01:20:28;99780.99;;;30.68;22.06
72024;BME280;59889;50.700;5.440;2023-06-14T01:22:52;99779.86;;;30.71;21.86
72024;BME280;59889;50.700;5.440;2023-06-14T01:25:14;99780.17;;;30.53;22.00
72024;BME280;59889;50.700;5.440;2023-06-14T01:27:40;99779.89;;;31.04;21.96
72024;BME280;59889;50.700;5.440;2023-06-14T01:30:07;99781.15;;;30.63;22.11
72024;BME280;59889;50.700;5.440;2023-06-14T01:32:32;99781.18;;;30.62;22.11
72024;BME280;59889;50.700;5.440;2023-06-14T01:34:57;99782.84;;;30.82;21.97
72024;BME280;59889;50.700;5.440;2023-06-14T01:37:23;99784.44;;;30.96;22.07
72024;BME280;59889;50.700;5.440;2023-06-14T01:39:50;99783.45;;;30.65;22.12
72024;BME280;59889;50.700;5.440;2023-06-14T01:42:15;99783.79;;;30.71;22.06
72024;BME280;59889;50.700;5.440;2023-06-14T01:44:42;99788.76;;;30.69;22.09
72024;BME280;59889;50.700;5.440;2023-06-14T01:47:07;99788.70;;;30.58;22.17
72024;BME280;59889;50.700;5.440;2023-06-14T01:49:33;99790.21;;;30.73;22.06
72024;BME280;59889;50.700;5.440;2023-06-14T01:51:58;99788.98;;;30.63;22.15
72024;BME280;59889;50.700;5.440;2023-06-14T01:54:24;99788.34;;;30.70;22.09
72024;BME280;59889;50.700;5.440;2023-06-14T01:56:50;99787.67;;;30.61;22.15
72024;BME280;59889;50.700;5.440;2023-06-14T01:59:16;99786.05;;;30.65;22.12
72024;BME280;59889;50.700;5.440;2023-06-14T02:01:42;99785.53;;;30.69;22.10
72024;BME280;59889;50.700;5.440;2023-06-14T02:04:08;99784.41;;;30.57;22.18
72024;BME280;59889;50.700;5.440;2023-06-14T02:06:33;99786.57;;;30.28;22.23
72024;BME280;59889;50.700;5.440;2023-06-14T02:08:59;99785.16;;;30.66;22.10
72024;BME280;59889;50.700;5.440;2023-06-14T02:11:25;99786.29;;;30.80;22.18
72024;BME280;59889;50.700;5.440;2023-06-14T02:13:50;99785.89;;;30.83;22.17
72024;BME280;59889;50.700;5.440;2023-06-14T02:16:16;99785.83;;;30.82;22.18
72024;BME280;59889;50.700;5.440;2023-06-14T02:18:42;99785.81;;;30.69;22.09
72024;BME280;59889;50.700;5.440;2023-06-14T02:21:08;99784.84;;;30.49;22.25
72024;BME280;59889;50.700;5.440;2023-06-14T02:23:34;99782.85;;;30.46;22.28
72024;BME280;59889;50.700;5.440;2023-06-14T02:26:00;99785.69;;;30.64;22.13
72024;BME280;59889;50.700;5.440;2023-06-14T02:28:25;99784.46;;;30.81;22.18
72024;BME280;59889;50.700;5.440;2023-06-14T02:30:51;99788.55;;;30.58;22.18
72024;BME280;59889;50.700;5.440;2023-06-14T02:33:17;99790.81;;;30.87;22.14
72024;BME280;59889;50.700;5.440;2023-06-14T02:35:43;99790.69;;;30.62;22.14
72024;BME280;59889;50.700;5.440;2023-06-14T02:38:09;99791.30;;;30.35;22.17
72024;BME280;59889;50.700;5.440;2023-06-14T02:40:34;99791.46;;;30.75;22.05
72024;BME280;59889;50.700;5.440;2023-06-14T02:43:00;99793.52;;;30.28;22.22
72024;BME280;59889;50.700;5.440;2023-06-14T02:45:26;99795.83;;;30.53;22.20
72024;BME280;59889;50.700;5.440;2023-06-14T02:47:52;99797.22;;;30.75;22.22
72024;BME280;59889;50.700;5.440;2023-06-14T02:50:17;99797.36;;;30.42;22.32
72024;BME280;59889;50.700;5.440;2023-06-14T02:52:43;99801.28;;;30.51;22.24
72024;BME280;59889;50.700;5.440;2023-06-14T02:55:09;99805.04;;;30.54;22.23
72024;BME280;59889;50.700;5.440;2023-06-14T02:57:35;99804.23;;;30.47;22.26
72024;BME280;59889;50.700;5.440;2023-06-14T03:00:01;99808.76;;;30.70;22.08
72024;BME280;59889;50.700;5.440;2023-06-14T03:02:27;99808.48;;;30.54;22.22
72024;BME280;59889;50.700;5.440;2023-06-14T03:04:52;99809.18;;;30.70;22.09
72024;BME280;59889;50.700;5.440;2023-06-14T03:07:18;99808.29;;;30.74;22.26
72024;BME280;59889;50.700;5.440;2023-06-14T03:09:44;99810.69;;;30.68;22.29
72024;BME280;59889;50.700;5.440;2023-06-14T03:12:10;99809.89;;;30.43;22.29
72024;BME280;59889;50.700;5.440;2023-06-14T03:14:36;99809.29;;;30.30;22.21
72024;BME280;59889;50.700;5.440;2023-06-14T03:17:02;99810.41;;;30.76;22.23
72024;BME280;59889;50.700;5.440;2023-06-14T03:19:28;99810.81;;;30.71;22.27
72024;BME280;59889;50.700;5.440;2023-06-14T03:21:54;99813.59;;;30.44;22.28
72024;BME280;59889;50.700;5.440;2023-06-14T03:24:19;99818.08;;;30.42;22.28
72024;BME280;59889;50.700;5.440;2023-06-14T03:26:45;99820.81;;;30.37;22.33
72024;BME280;59889;50.700;5.440;2023-06-14T03:29:10;99819.55;;;30.60;22.35
72024;BME280;59889;50.700;5.440;2023-06-14T03:31:42;99816.56;;;30.19;22.28
72024;BME280;59889;50.700;5.440;2023-06-14T03:34:02;99818.57;;;30.58;22.33
72024;BME280;59889;50.700;5.440;2023-06-14T03:36:28;99827.83;;;30.57;22.36
72024;BME280;59889;50.700;5.440;2023-06-14T03:38:54;99828.93;;;30.25;22.39
72024;BME280;59889;50.700;5.440;2023-06-14T03:41:19;99831.57;;;30.36;22.34
72024;BME280;59889;50.700;5.440;2023-06-14T03:43:45;99827.80;;;30.53;22.38
72024;BME280;59889;50.700;5.440;2023-06-14T03:46:11;99828.91;;;30.22;22.43
72024;BME280;59889;50.700;5.440;2023-06-14T03:48:37;99829.12;;;30.09;22.32
72024;BME280;59889;50.700;5.440;2023-06-14T03:51:02;99833.76;;;30.75;22.21
72024;BME280;59889;50.700;5.440;2023-06-14T03:53:28;99838.27;;;30.64;22.28
72024;BME280;59889;50.700;5.440;2023-06-14T03:55:54;99838.16;;;30.54;22.38
72024;BME280;59889;50.700;5.440;2023-06-14T03:58:20;99838.91;;;30.34;22.36
72024;BME280;59889;50.700;5.440;2023-06-14T04:00:46;99839.50;;;30.58;22.36
72024;BME280;59889;50.700;5.440;2023-06-14T04:03:12;99839.06;;;30.41;22.30
72024;BME280;59889;50.700;5.440;2023-06-14T04:05:38;99840.09;;;30.27;22.38
72024;BME280;59889;50.700;5.440;2023-06-14T04:08:04;99845.59;;;30.65;22.28
72024;BME280;59889;50.700;5.440;2023-06-14T04:10:29;99849.82;;;30.45;22.45
72024;BME280;59889;50.700;5.440;2023-06-14T04:12:55;99852.89;;;30.48;22.44
72024;BME280;59889;50.700;5.440;2023-06-14T04:15:21;99855.67;;;30.57;22.36
72024;BME280;59889;50.700;5.440;2023-06-14T04:17:47;99857.65;;;30.48;22.25
72024;BME280;59889;50.700;5.440;2023-06-14T04:20:12;99855.92;;;30.24;22.41
72024;BME280;59889;50.700;5.440;2023-06-14T04:22:38;99856.55;;;29.98;22.45
72024;BME280;59889;50.700;5.440;2023-06-14T04:25:04;99859.98;;;30.09;22.37
72024;BME280;59889;50.700;5.440;2023-06-14T04:27:29;99859.30;;;30.52;22.39
72024;BME280;59889;50.700;5.440;2023-06-14T04:29:55;99863.30;;;30.50;22.42
72024;BME280;59889;50.700;5.440;2023-06-14T04:32:21;99862.63;;;30.26;22.41
72024;BME280;59889;50.700;5.440;2023-06-14T04:34:47;99860.47;;;30.32;22.37
72024;BME280;59889;50.700;5.440;2023-06-14T04:37:12;99862.14;;;30.47;22.44
72024;BME280;59889;50.700;5.440;2023-06-14T04:39:38;99861.62;;;29.96;22.47
72024;BME280;59889;50.700;5.440;2023-06-14T04:42:04;99862.04;;;30.48;22.43
72024;BME280;59889;50.700;5.440;2023-06-14T04:44:30;99863.66;;;29.90;22.54
72024;BME280;59889;50.700;5.440;2023-06-14T04:46:56;99864.62;;;30.48;22.45
72024;BME280;59889;50.700;5.440;2023-06-14T04:49:21;99865.54;;;30.52;22.41
72024;BME280;59889;50.700;5.440;2023-06-14T04:51:47;99866.06;;;30.52;22.45
72024;BME280;59889;50.700;5.440;2023-06-14T04:54:13;99866.23;;;30.54;22.42
72024;BME280;59889;50.700;5.440;2023-06-14T04:56:39;99865.60;;;30.17;22.51
72024;BME280;59889;50.700;5.440;2023-06-14T04:59:05;99869.62;;;30.40;22.53
72024;BME280;59889;50.700;5.440;2023-06-14T05:01:30;99871.69;;;30.28;22.09
72024;BME280;59889;50.700;5.440;2023-06-14T05:03:56;99871.98;;;29.99;21.96
72024;BME280;59889;50.700;5.440;2023-06-14T05:06:21;99874.50;;;29.97;21.87
72024;BME280;59889;50.700;5.440;2023-06-14T05:08:46;99876.47;;;29.96;22.00
72024;BME280;59889;50.700;5.440;2023-06-14T05:11:11;99876.36;;;30.15;22.08
72024;BME280;59889;50.700;5.440;2023-06-14T05:13:37;99877.77;;;29.59;21.98
72024;BME280;59889;50.700;5.440;2023-06-14T05:16:03;99878.06;;;29.95;22.06
72024;BME280;59889;50.700;5.440;2023-06-14T05:18:28;99879.00;;;29.95;22.07
72024;BME280;59889;50.700;5.440;2023-06-14T05:20:54;99879.42;;;29.87;22.14
72024;BME280;59889;50.700;5.440;2023-06-14T05:23:19;99881.44;;;29.78;22.03
72024;BME280;59889;50.700;5.440;2023-06-14T05:25:44;99883.22;;;29.75;21.89
72024;BME280;59889;50.700;5.440;2023-06-14T05:28:10;99882.16;;;29.75;21.75
72024;BME280;59889;50.700;5.440;2023-06-14T05:30:37;99881.73;;;29.70;21.72
72024;BME280;59889;50.700;5.440;2023-06-14T05:33:00;99877.68;;;29.65;21.72
72024;BME280;59889;50.700;5.440;2023-06-14T05:35:26;99877.11;;;29.91;21.41
72024;BME280;59889;50.700;5.440;2023-06-14T05:37:51;99875.16;;;30.06;21.39
72024;BME280;59889;50.700;5.440;2023-06-14T05:40:16;99876.91;;;29.92;21.40
72024;BME280;59889;50.700;5.440;2023-06-14T05:42:41;99880.79;;;29.79;21.61
72024;BME280;59889;50.700;5.440;2023-06-14T05:45:08;99882.21;;;29.89;21.58
72024;BME280;59889;50.700;5.440;2023-06-14T05:47:33;99885.02;;;29.95;21.60
72024;BME280;59889;50.700;5.440;2023-06-14T05:49:58;99885.84;;;30.12;21.68
72024;BME280;59889;50.700;5.440;2023-06-14T05:52:23;99889.16;;;30.02;21.58
72024;BME280;59889;50.700;5.440;2023-06-14T05:54:48;99889.93;;;29.86;21.74
72024;BME280;59889;50.700;5.440;2023-06-14T05:57:14;99893.29;;;29.98;21.61
72024;BME280;59889;50.700;5.440;2023-06-14T05:59:39;99893.28;;;29.92;21.66
72024;BME280;59889;50.700;5.440;2023-06-14T06:02:05;99894.91;;;29.96;21.64
72024;BME280;59889;50.700;5.440;2023-06-14T06:04:29;99894.61;;;29.94;21.66
72024;BME280;59889;50.700;5.440;2023-06-14T06:06:55;99892.14;;;29.97;21.54
72024;BME280;59889;50.700;5.440;2023-06-14T06:09:20;99894.17;;;30.09;21.30
72024;BME280;59889;50.700;5.440;2023-06-14T06:11:46;99896.26;;;30.08;21.21
72024;BME280;59889;50.700;5.440;2023-06-14T06:14:11;99897.82;;;30.24;21.35
72024;BME280;59889;50.700;5.440;2023-06-14T06:16:36;99898.09;;;29.88;21.32
72024;BME280;59889;50.700;5.440;2023-06-14T06:19:01;99901.27;;;29.79;21.33
72024;BME280;59889;50.700;5.440;2023-06-14T06:21:26;99900.18;;;29.75;21.31
72024;BME280;59889;50.700;5.440;2023-06-14T06:23:51;99901.50;;;29.72;21.33
72024;BME280;59889;50.700;5.440;2023-06-14T06:26:16;99903.02;;;29.67;21.42
72024;BME280;59889;50.700;5.440;2023-06-14T06:28:41;99900.03;;;29.68;21.40
72024;BME280;59889;50.700;5.440;2023-06-14T06:31:06;99897.79;;;29.87;21.45
72024;BME280;59889;50.700;5.440;2023-06-14T06:33:32;99900.94;;;29.93;21.43
72024;BME280;59889;50.700;5.440;2023-06-14T06:35:57;99901.40;;;29.91;21.48
72024;BME280;59889;50.700;5.440;2023-06-14T06:38:22;99903.25;;;29.64;21.48
72024;BME280;59889;50.700;5.440;2023-06-14T06:40:47;99904.95;;;29.90;21.50
72024;BME280;59889;50.700;5.440;2023-06-14T06:43:13;99904.03;;;29.69;21.47
72024;BME280;59889;50.700;5.440;2023-06-14T06:45:38;99904.15;;;29.60;21.52
72024;BME280;59889;50.700;5.440;2023-06-14T06:48:04;99905.81;;;29.63;21.42
72024;BME280;59889;50.700;5.440;2023-06-14T06:50:28;99906.24;;;29.57;21.46
72024;BME280;59889;50.700;5.440;2023-06-14T06:52:54;99909.59;;;30.00;21.46
72024;BME280;59889;50.700;5.440;2023-06-14T06:55:20;99911.32;;;29.84;21.36
72024;BME280;59889;50.700;5.440;2023-06-14T06:57:45;99915.83;;;29.98;21.33
72024;BME280;59889;50.700;5.440;2023-06-14T07:00:11;99918.83;;;29.71;21.45
72024;BME280;59889;50.700;5.440;2023-06-14T07:02:36;99916.35;;;29.78;21.45
72024;BME280;59889;50.700;5.440;2023-06-14T07:05:01;99922.04;;;29.85;21.45
72024;BME280;59889;50.700;5.440;2023-06-14T07:07:27;99925.49;;;30.07;21.51
72024;BME280;59889;50.700;5.440;2023-06-14T07:09:52;99929.47;;;30.17;21.47
72024;BME280;59889;50.700;5.440;2023-06-14T07:12:17;99937.31;;;29.74;21.73
72024;BME280;59889;50.700;5.440;2023-06-14T07:14:42;99943.61;;;29.90;21.64
72024;BME280;59889;50.700;5.440;2023-06-14T07:17:07;99942.17;;;30.44;21.64
72024;BME280;59889;50.700;5.440;2023-06-14T07:19:33;99942.40;;;29.89;21.70
72024;BME280;59889;50.700;5.440;2023-06-14T07:21:58;99944.68;;;30.35;21.53
72024;BME280;59889;50.700;5.440;2023-06-14T07:24:23;99945.46;;;29.93;21.69
72024;BME280;59889;50.700;5.440;2023-06-14T07:26:49;99945.91;;;29.80;21.62
72024;BME280;59889;50.700;5.440;2023-06-14T07:29:14;99945.21;;;30.00;21.66
72024;BME280;59889;50.700;5.440;2023-06-14T07:31:39;99950.37;;;29.91;21.75
72024;BME280;59889;50.700;5.440;2023-06-14T07:34:04;99950.65;;;29.95;21.74
72024;BME280;59889;50.700;5.440;2023-06-14T07:36:29;99954.96;;;30.07;21.64
72024;BME280;59889;50.700;5.440;2023-06-14T07:38:54;99960.28;;;30.10;21.63
72024;BME280;59889;50.700;5.440;2023-06-14T07:41:19;99957.08;;;30.09;21.66
72024;BME280;59889;50.700;5.440;2023-06-14T07:43:44;99954.49;;;30.05;21.71
72024;BME280;59889;50.700;5.440;2023-06-14T07:46:10;99959.17;;;30.34;21.67
72024;BME280;59889;50.700;5.440;2023-06-14T07:48:35;99957.99;;;30.44;21.60
72024;BME280;59889;50.700;5.440;2023-06-14T07:51:01;99962.09;;;30.16;21.65
72024;BME280;59889;50.700;5.440;2023-06-14T07:53:26;99963.12;;;29.96;21.82
72024;BME280;59889;50.700;5.440;2023-06-14T07:55:52;99963.62;;;30.23;21.64
72024;BME280;59889;50.700;5.440;2023-06-14T07:58:17;99966.49;;;30.51;21.62
72024;BME280;59889;50.700;5.440;2023-06-14T08:00:42;99970.16;;;30.15;21.73
72024;BME280;59889;50.700;5.440;2023-06-14T08:03:08;99967.12;;;30.17;21.73
72024;BME280;59889;50.700;5.440;2023-06-14T08:05:34;99970.23;;;30.14;21.76
72024;BME280;59889;50.700;5.440;2023-06-14T08:08:00;99971.76;;;30.46;21.53
72024;BME280;59889;50.700;5.440;2023-06-14T08:10:25;99971.44;;;30.40;21.59
72024;BME280;59889;50.700;5.440;2023-06-14T08:12:50;99970.11;;;30.29;21.71
72024;BME280;59889;50.700;5.440;2023-06-14T08:15:15;99967.63;;;30.42;21.60
72024;BME280;59889;50.700;5.440;2023-06-14T08:17:42;99964.27;;;30.22;21.59
72024;BME280;59889;50.700;5.440;2023-06-14T08:20:07;99966.85;;;30.42;21.62
72024;BME280;59889;50.700;5.440;2023-06-14T08:22:32;99968.10;;;30.43;21.67
72024;BME280;59889;50.700;5.440;2023-06-14T08:24:57;99966.05;;;30.44;21.64
72024;BME280;59889;50.700;5.440;2023-06-14T08:27:23;99970.86;;;30.40;21.68
72024;BME280;59889;50.700;5.440;2023-06-14T08:29:49;99975.56;;;30.49;21.65
72024;BME280;59889;50.700;5.440;2023-06-14T08:32:14;99976.91;;;30.24;21.91
72024;BME280;59889;50.700;5.440;2023-06-14T08:34:40;99976.43;;;30.16;21.95
72024;BME280;59889;50.700;5.440;2023-06-14T08:37:05;99980.16;;;30.42;21.83
72024;BME280;59889;50.700;5.440;2023-06-14T08:39:30;99980.98;;;30.39;21.75
72024;BME280;59889;50.700;5.440;2023-06-14T08:41:56;99977.28;;;30.09;21.08
72024;BME280;59889;50.700;5.440;2023-06-14T08:44:21;99980.34;;;30.19;20.31
72024;BME280;59889;50.700;5.440;2023-06-14T08:46:48;99981.66;;;30.18;20.05
72024;BME280;59889;50.700;5.440;2023-06-14T08:49:12;99977.92;;;29.95;19.85
72024;BME280;59889;50.700;5.440;2023-06-14T08:51:38;99979.89;;;29.93;19.94
72024;BME280;59889;50.700;5.440;2023-06-14T08:54:04;99979.13;;;30.03;19.85
72024;BME280;59889;50.700;5.440;2023-06-14T08:56:30;99978.58;;;30.00;19.71
72024;BME280;59889;50.700;5.440;2023-06-14T08:58:56;99983.81;;;29.95;19.82
72024;BME280;59889;50.700;5.440;2023-06-14T09:01:21;99981.75;;;29.91;20.08
72024;BME280;59889;50.700;5.440;2023-06-14T09:03:48;99980.08;;;30.10;19.93
72024;BME280;59889;50.700;5.440;2023-06-14T09:06:12;99983.63;;;29.95;19.53
72024;BME280;59889;50.700;5.440;2023-06-14T09:08:40;99987.29;;;29.78;19.51
72024;BME280;59889;50.700;5.440;2023-06-14T09:11:05;99987.65;;;29.79;19.26
72024;BME280;59889;50.700;5.440;2023-06-14T09:13:29;99989.92;;;29.86;19.31
72024;BME280;59889;50.700;5.440;2023-06-14T09:15:55;99990.27;;;29.88;19.28
72024;BME280;59889;50.700;5.440;2023-06-14T09:18:21;99991.09;;;29.92;19.28
72024;BME280;59889;50.700;5.440;2023-06-14T09:20:47;99987.70;;;30.02;19.24
72024;BME280;59889;50.700;5.440;2023-06-14T09:23:12;99993.14;;;29.92;19.38
72024;BME280;59889;50.700;5.440;2023-06-14T09:25:42;99997.69;;;29.69;19.37
72024;BME280;59889;50.700;5.440;2023-06-14T09:28:06;99996.04;;;29.90;19.29
72024;BME280;59889;50.700;5.440;2023-06-14T09:30:30;99991.27;;;29.96;19.26
72024;BME280;59889;50.700;5.440;2023-06-14T09:32:56;99995.85;;;29.94;19.18
72024;BME280;59889;50.700;5.440;2023-06-14T09:35:22;99993.10;;;29.97;19.15
72024;BME280;59889;50.700;5.440;2023-06-14T09:37:47;99990.88;;;29.74;19.08
72024;BME280;59889;50.700;5.440;2023-06-14T09:40:13;99992.05;;;30.20;19.02
72024;BME280;59889;50.700;5.440;2023-06-14T09:42:40;99993.37;;;29.87;18.93
72024;BME280;59889;50.700;5.440;2023-06-14T09:45:05;99995.57;;;29.55;18.86
72024;BME280;59889;50.700;5.440;2023-06-14T09:47:30;99994.15;;;29.73;18.60
72024;BME280;59889;50.700;5.440;2023-06-14T09:49:55;100002.63;;;29.10;18.76
72024;BME280;59889;50.700;5.440;2023-06-14T09:52:22;100001.34;;;29.82;18.28
72024;BME280;59889;50.700;5.440;2023-06-14T09:54:48;99999.22;;;29.82;18.38
72024;BME280;59889;50.700;5.440;2023-06-14T09:57:14;100006.38;;;29.08;18.98
72024;BME280;59889;50.700;5.440;2023-06-14T09:59:41;100007.29;;;29.55;18.56
72024;BME280;59889;50.700;5.440;2023-06-14T10:02:09;100007.54;;;29.94;18.72
72024;BME280;59889;50.700;5.440;2023-06-14T10:04:30;100009.21;;;29.74;18.39
72024;BME280;59889;50.700;5.440;2023-06-14T10:06:55;100012.67;;;29.81;18.53
72024;BME280;59889;50.700;5.440;2023-06-14T10:09:21;100011.30;;;30.16;18.46
72024;BME280;59889;50.700;5.440;2023-06-14T10:11:46;100016.80;;;30.04;18.52
72024;BME280;59889;50.700;5.440;2023-06-14T10:14:13;100016.43;;;30.16;18.43
72024;BME280;59889;50.700;5.440;2023-06-14T10:16:45;100016.78;;;29.90;18.54
72024;BME280;59889;50.700;5.440;2023-06-14T10:19:10;100017.52;;;29.91;18.28
72024;BME280;59889;50.700;5.440;2023-06-14T10:21:33;100014.92;;;29.69;18.41
72024;BME280;59889;50.700;5.440;2023-06-14T10:23:58;100012.84;;;29.50;18.24
72024;BME280;59889;50.700;5.440;2023-06-14T10:26:23;100013.61;;;29.58;18.32
72024;BME280;59889;50.700;5.440;2023-06-14T10:28:58;100009.93;;;29.65;18.06
72024;BME280;59889;50.700;5.440;2023-06-14T10:31:13;100011.31;;;29.59;18.04
72024;BME280;59889;50.700;5.440;2023-06-14T10:33:48;100016.87;;;29.66;18.15
72024;BME280;59889;50.700;5.440;2023-06-14T10:36:10;100017.27;;;30.28;18.25
72024;BME280;59889;50.700;5.440;2023-06-14T10:38:31;100017.61;;;29.51;18.14
72024;BME280;59889;50.700;5.440;2023-06-14T10:40:57;100016.57;;;29.92;17.87
72024;BME280;59889;50.700;5.440;2023-06-14T10:43:23;100019.56;;;29.89;17.85
72024;BME280;59889;50.700;5.440;2023-06-14T10:50:42;100015.04;;;29.81;17.85
72024;BME280;59889;50.700;5.440;2023-06-14T10:55:35;100022.38;;;29.89;17.88
72024;BME280;59889;50.700;5.440;2023-06-14T10:57:58;100022.27;;;30.23;17.71
72024;BME280;59889;50.700;5.440;2023-06-14T11:00:24;100019.06;;;29.75;17.71
72024;BME280;59889;50.700;5.440;2023-06-14T11:05:15;100013.04;;;29.72;17.75
72024;BME280;59889;50.700;5.440;2023-06-14T11:07:48;100016.96;;;29.70;17.70
72024;BME280;59889;50.700;5.440;2023-06-14T11:10:15;100013.99;;;29.92;17.50
72024;BME280;59889;50.700;5.440;2023-06-14T11:12:33;100013.79;;;29.61;17.63
72024;BME280;59889;50.700;5.440;2023-06-14T11:14:57;100018.63;;;29.59;17.69
72024;BME280;59889;50.700;5.440;2023-06-14T11:17:23;100016.06;;;29.68;17.70
72024;BME280;59889;50.700;5.440;2023-06-14T11:19:49;100016.95;;;29.69;17.68
72024;BME280;59889;50.700;5.440;2023-06-14T11:22:15;100014.49;;;29.51;17.58
72024;BME280;59889;50.700;5.440;2023-06-14T11:24:41;100009.31;;;29.70;17.39
72024;BME280;59889;50.700;5.440;2023-06-14T11:27:06;100012.49;;;29.64;17.42
72024;BME280;59889;50.700;5.440;2023-06-14T11:29:32;100010.82;;;29.41;17.41
72024;BME280;59889;50.700;5.440;2023-06-14T11:31:58;100005.93;;;29.90;17.42
72024;BME280;59889;50.700;5.440;2023-06-14T11:34:24;100007.45;;;29.82;17.57
72024;BME280;59889;50.700;5.440;2023-06-14T11:36:50;100002.60;;;29.79;17.60
72024;BME280;59889;50.700;5.440;2023-06-14T11:39:16;99997.83;;;30.06;17.65
72024;BME280;59889;50.700;5.440;2023-06-14T11:41:43;100009.28;;;29.56;17.61
72024;BME280;59889;50.700;5.440;2023-06-14T11:44:08;100000.46;;;29.83;17.46
72024;BME280;59889;50.700;5.440;2023-06-14T11:46:34;99999.10;;;29.55;17.51
72024;BME280;59889;50.700;5.440;2023-06-14T11:48:59;99995.72;;;29.52;17.36
72024;BME280;59889;50.700;5.440;2023-06-14T11:51:25;100003.46;;;29.63;17.28
72024;BME280;59889;50.700;5.440;2023-06-14T11:53:51;99999.70;;;29.38;17.18
72024;BME280;59889;50.700;5.440;2023-06-14T11:56:17;99996.11;;;29.29;17.20
72024;BME280;59889;50.700;5.440;2023-06-14T11:58:43;99999.00;;;29.52;17.22
72024;BME280;59889;50.700;5.440;2023-06-14T12:01:08;100001.00;;;29.75;17.41
72024;BME280;59889;50.700;5.440;2023-06-14T12:03:35;99998.43;;;30.04;17.48
72024;BME280;59889;50.700;5.440;2023-06-14T12:06:06;99999.97;;;29.73;17.66
72024;BME280;59889;50.700;5.440;2023-06-14T12:08:32;100000.13;;;29.57;17.72
72024;BME280;59889;50.700;5.440;2023-06-14T12:10:52;99997.84;;;29.66;17.73
72024;BME280;59889;50.700;5.440;2023-06-14T12:13:18;99995.49;;;30.05;17.80
72024;BME280;59889;50.700;5.440;2023-06-14T12:15:44;99995.10;;;29.83;17.75
72024;BME280;59889;50.700;5.440;2023-06-14T12:18:10;99990.39;;;29.69;17.78
72024;BME280;59889;50.700;5.440;2023-06-14T12:20:35;99989.74;;;29.62;17.79
72024;BME280;59889;50.700;5.440;2023-06-14T12:23:03;99989.12;;;29.60;17.86
72024;BME280;59889;50.700;5.440;2023-06-14T12:25:27;99995.30;;;29.85;17.65
72024;BME280;59889;50.700;5.440;2023-06-14T12:27:50;99992.20;;;29.38;17.49
72024;BME280;59889;50.700;5.440;2023-06-14T12:30:16;99993.84;;;29.27;17.15
72024;BME280;59889;50.700;5.440;2023-06-14T12:32:42;99985.31;;;29.59;17.14
72024;BME280;59889;50.700;5.440;2023-06-14T12:35:08;99987.54;;;29.80;17.21
72024;BME280;59889;50.700;5.440;2023-06-14T12:37:33;99981.85;;;29.56;17.19
72024;BME280;59889;50.700;5.440;2023-06-14T12:39:59;99983.01;;;29.56;17.19
72024;BME280;59889;50.700;5.440;2023-06-14T12:42:25;99987.61;;;29.58;17.26
72024;BME280;59889;50.700;5.440;2023-06-14T12:44:51;99988.64;;;29.56;17.09
72024;BME280;59889;50.700;5.440;2023-06-14T12:47:17;99988.35;;;30.00;16.93
72024;BME280;59889;50.700;5.440;2023-06-14T12:49:43;99986.04;;;29.76;17.00
72024;BME280;59889;50.700;5.440;2023-06-14T12:52:09;99984.71;;;29.50;16.99
72024;BME280;59889;50.700;5.440;2023-06-14T12:54:35;99988.90;;;29.63;16.77
72024;BME280;59889;50.700;5.440;2023-06-14T12:57:00;99995.31;;;29.66;16.65